Time;durP1;ratioP1;P1;durP2;ratioP2;P2;SDS_P1;SDS_P2;PMS_P1;PMS_P2;Temp;Humidity;BMP_temperature;BMP_pressure;BME280_temperature;BME280_humidity;BME280_pressure;Samples;Min_cycle;Max_cycle;Signal;HPM_P1;HPM_P2
2022/10/26 00:02:07;;;;;;;10.55;3.22;;;;;;;;;;5046931;28;20029;-83
2022/10/26 00:04:32;;;;;;;8.98;2.83;;;;;;;;;;5036871;28;20036;-83
2022/10/26 00:06:58;;;;;;;6.75;2.80;;;;;;;;;;5016126;28;20025;-81
2022/10/26 00:09:23;;;;;;;11.60;3.42;;;;;;;;;;5045985;28;20041;-83
2022/10/26 00:11:48;;;;;;;4.30;2.80;;;;;;;;;;5019160;28;20036;-81
2022/10/26 00:14:14;;;;;;;9.95;3.10;;;;;;;;;;5038207;28;20029;-83
2022/10/26 00:16:39;;;;;;;8.98;3.00;;;;;;;;;;5039578;28;20033;-83
2022/10/26 00:19:05;;;;;;;10.52;2.80;;;;;;;;;;5015758;28;20026;-82
2022/10/26 00:21:30;;;;;;;10.68;3.00;;;;;;;;;;5041523;28;20034;-82
2022/10/26 00:23:58;;;;;;;3.63;2.20;;;;;;;;;;5020363;28;20021;-82
2022/10/26 00:26:23;;;;;;;7.63;3.00;;;;;;;;;;5045481;28;20034;-83
2022/10/26 00:28:52;;;;;;;4.47;2.72;;;;;;;;;;5021819;28;20075;-83
2022/10/26 00:31:17;;;;;;;7.32;2.78;;;;;;;;;;5047703;28;20092;-83
2022/10/26 00:33:43;;;;;;;4.35;2.58;;;;;;;;;;5036604;28;20041;-82
2022/10/26 00:36:09;;;;;;;9.82;2.33;;;;;;;;;;5041180;28;20151;-82
2022/10/26 00:38:35;;;;;;;5.00;2.72;;;;;;;;;;5028697;28;20036;-83
2022/10/26 00:41:00;;;;;;;3.35;2.10;;;;;;;;;;5040609;28;20033;-82
2022/10/26 00:43:26;;;;;;;5.32;2.50;;;;;;;;;;5041905;28;20037;-83
2022/10/26 00:45:54;;;;;;;10.43;3.20;;;;;;;;;;5024755;28;20029;-83
2022/10/26 00:48:25;;;;;;;8.43;2.72;;;;;;;;;;5037865;28;20040;-82
2022/10/26 00:50:52;;;;;;;7.15;2.95;;;;;;;;;;5022034;28;20031;-83
2022/10/26 00:53:18;;;;;;;6.40;3.20;;;;;;;;;;5049007;28;20040;-83
2022/10/26 00:55:47;;;;;;;6.72;2.65;;;;;;;;;;5023618;28;20056;-83
2022/10/26 00:58:13;;;;;;;7.88;2.75;;;;;;;;;;5042371;28;20116;-83
2022/10/26 01:00:40;;;;;;;6.53;2.97;;;;;;;;;;5042661;28;20022;-82
2022/10/26 01:03:07;;;;;;;9.82;2.95;;;;;;;;;;5041637;28;20515;-84
2022/10/26 01:05:34;;;;;;;8.63;2.80;;;;;;;;;;5038455;28;20116;-84
2022/10/26 01:08:01;;;;;;;3.53;2.13;;;;;;;;;;5042073;28;20035;-83
2022/10/26 01:10:26;;;;;;;9.18;2.83;;;;;;;;;;5027513;28;20031;-82
2022/10/26 01:12:54;;;;;;;3.75;2.15;;;;;;;;;;5041622;28;20033;-82
2022/10/26 01:15:26;;;;;;;4.43;2.38;;;;;;;;;;5040104;28;20113;-83
2022/10/26 01:17:56;;;;;;;4.60;2.53;;;;;;;;;;5036027;28;20030;-83
2022/10/26 01:20:39;;;;;;;3.17;2.22;;;;;;;;;;5035578;28;20033;-84
2022/10/26 01:23:18;;;;;;;7.22;2.45;;;;;;;;;;5035690;28;20027;-84
2022/10/26 01:26:18;;;;;;;7.10;2.67;;;;;;;;;;5039607;28;20022;-83
2022/10/26 01:29:00;;;;;;;6.47;2.55;;;;;;;;;;5043903;28;20036;-84
2022/10/26 01:31:44;;;;;;;11.07;2.67;;;;;;;;;;5032563;28;20021;-84
2022/10/26 01:34:15;;;;;;;5.00;2.50;;;;;;;;;;5039339;28;20101;-83
2022/10/26 01:36:48;;;;;;;8.30;3.22;;;;;;;;;;5037846;28;20187;-82
2022/10/26 01:39:26;;;;;;;5.85;2.80;;;;;;;;;;5039149;28;20029;-83
2022/10/26 01:41:58;;;;;;;6.35;2.67;;;;;;;;;;5009806;28;20364;-84
2022/10/26 01:44:29;;;;;;;6.85;3.08;;;;;;;;;;5039260;28;20032;-83
2022/10/26 01:46:57;;;;;;;5.40;2.80;;;;;;;;;;5018913;28;20469;-83
2022/10/26 01:49:27;;;;;;;5.15;2.40;;;;;;;;;;5020036;28;20035;-83
2022/10/26 01:51:53;;;;;;;7.60;3.20;;;;;;;;;;5043046;28;20032;-85
2022/10/26 01:54:18;;;;;;;3.33;2.45;;;;;;;;;;5045134;28;20030;-84
2022/10/26 01:56:49;;;;;;;6.25;2.35;;;;;;;;;;5023966;28;20341;-85
2022/10/26 01:59:43;;;;;;;5.65;2.80;;;;;;;;;;5041175;28;20029;-85
2022/10/26 02:02:28;;;;;;;7.70;2.80;;;;;;;;;;5021051;28;20140;-85
2022/10/26 02:05:21;;;;;;;8.45;2.78;;;;;;;;;;5036797;28;20033;-86
2022/10/26 02:08:23;;;;;;;5.93;2.60;;;;;;;;;;5037830;28;20036;-84
2022/10/26 02:10:52;;;;;;;8.93;3.33;;;;;;;;;;5019692;28;20388;-84
2022/10/26 02:13:56;;;;;;;7.57;3.15;;;;;;;;;;5040426;28;20109;-84
2022/10/26 02:16:43;;;;;;;9.07;3.10;;;;;;;;;;5022817;28;20048;-84
2022/10/26 02:19:26;;;;;;;6.68;3.03;;;;;;;;;;5016956;28;20435;-84
2022/10/26 02:22:18;;;;;;;8.43;3.13;;;;;;;;;;5014022;28;20049;-84
2022/10/26 02:24:45;;;;;;;5.47;2.85;;;;;;;;;;5039264;28;20040;-83
2022/10/26 02:27:19;;;;;;;17.98;3.45;;;;;;;;;;5036565;28;20021;-85
2022/10/26 02:29:46;;;;;;;5.60;2.90;;;;;;;;;;5023326;28;20021;-84
2022/10/26 02:32:12;;;;;;;14.23;3.72;;;;;;;;;;5039730;28;20025;-84
2022/10/26 02:34:42;;;;;;;10.70;3.00;;;;;;;;;;5014120;28;20064;-84
2022/10/26 02:37:08;;;;;;;8.45;3.20;;;;;;;;;;5034061;28;20116;-84
2022/10/26 02:39:35;;;;;;;13.07;3.45;;;;;;;;;;5022217;28;20075;-84
2022/10/26 02:42:05;;;;;;;12.77;2.88;;;;;;;;;;5038962;28;20557;-84
2022/10/26 02:44:42;;;;;;;10.15;2.88;;;;;;;;;;5024164;28;20036;-85
2022/10/26 02:47:07;;;;;;;7.85;2.40;;;;;;;;;;5023770;28;20031;-84
2022/10/26 02:49:33;;;;;;;10.70;2.83;;;;;;;;;;5037002;28;20104;-84
2022/10/26 02:52:10;;;;;;;3.90;2.30;;;;;;;;;;5019599;28;20029;-84
2022/10/26 02:54:51;;;;;;;5.60;3.25;;;;;;;;;;5035921;28;20036;-84
2022/10/26 02:57:22;;;;;;;6.50;2.85;;;;;;;;;;5035670;28;20048;-85
2022/10/26 02:59:48;;;;;;;6.55;3.47;;;;;;;;;;5018315;28;20037;-84
2022/10/26 03:02:16;;;;;;;7.05;3.10;;;;;;;;;;5033898;28;20517;-83
2022/10/26 03:04:41;;;;;;;5.88;2.83;;;;;;;;;;5015682;28;20494;-83
2022/10/26 03:07:07;;;;;;;5.28;3.05;;;;;;;;;;5034646;28;20025;-85
2022/10/26 03:09:32;;;;;;;9.15;3.10;;;;;;;;;;5041172;28;20032;-83
2022/10/26 03:11:57;;;;;;;20.90;3.42;;;;;;;;;;5036230;28;20014;-85
2022/10/26 03:14:23;;;;;;;6.07;3.35;;;;;;;;;;5035728;28;20455;-82
2022/10/26 03:16:48;;;;;;;7.53;3.10;;;;;;;;;;5019853;28;20036;-85
2022/10/26 03:19:14;;;;;;;2.58;2.38;;;;;;;;;;5022297;28;20029;-84
2022/10/26 03:21:41;;;;;;;11.57;4.05;;;;;;;;;;5035860;28;20030;-85
2022/10/26 03:24:07;;;;;;;7.43;3.17;;;;;;;;;;5037248;28;20014;-85
2022/10/26 03:26:32;;;;;;;9.02;3.40;;;;;;;;;;5040829;28;20175;-85
2022/10/26 03:28:57;;;;;;;9.30;3.03;;;;;;;;;;5023149;28;20025;-84
2022/10/26 03:31:23;;;;;;;5.40;2.58;;;;;;;;;;5037169;28;20025;-83
2022/10/26 03:33:48;;;;;;;9.48;3.17;;;;;;;;;;5021242;28;20357;-84
2022/10/26 03:36:13;;;;;;;4.68;2.80;;;;;;;;;;5038976;28;20026;-83
2022/10/26 03:38:39;;;;;;;4.45;2.80;;;;;;;;;;5041012;28;20029;-84
2022/10/26 03:41:04;;;;;;;5.40;2.80;;;;;;;;;;5044295;28;20375;-84
2022/10/26 03:43:29;;;;;;;7.15;3.40;;;;;;;;;;5037847;28;20463;-83
2022/10/26 03:45:55;;;;;;;5.10;2.83;;;;;;;;;;5032585;28;20077;-82
2022/10/26 03:48:20;;;;;;;11.88;3.92;;;;;;;;;;5056385;28;20035;-81
2022/10/26 03:50:45;;;;;;;6.78;3.88;;;;;;;;;;5056048;28;20013;-82
2022/10/26 03:53:11;;;;;;;5.68;3.15;;;;;;;;;;5043750;28;20033;-84
2022/10/26 03:55:36;;;;;;;6.97;3.05;;;;;;;;;;5039613;28;20108;-83
2022/10/26 03:58:03;;;;;;;7.53;3.55;;;;;;;;;;5023636;28;20017;-84
2022/10/26 04:00:28;;;;;;;9.98;3.28;;;;;;;;;;5045658;28;20040;-83
2022/10/26 04:02:56;;;;;;;8.35;3.00;;;;;;;;;;5047355;28;20029;-84
2022/10/26 04:05:22;;;;;;;6.93;2.88;;;;;;;;;;5050257;28;20086;-83
2022/10/26 04:07:55;;;;;;;11.75;3.17;;;;;;;;;;5037641;28;20052;-82
2022/10/26 04:10:22;;;;;;;5.13;3.08;;;;;;;;;;5035422;28;20066;-84
2022/10/26 04:12:47;;;;;;;9.48;3.60;;;;;;;;;;5053126;28;20048;-83
2022/10/26 04:15:13;;;;;;;6.78;2.80;;;;;;;;;;5041721;28;20044;-83
2022/10/26 04:17:39;;;;;;;10.77;3.08;;;;;;;;;;5061937;28;20037;-83
2022/10/26 04:20:05;;;;;;;5.70;2.75;;;;;;;;;;5061896;28;20056;-82
2022/10/26 04:22:30;;;;;;;6.30;2.97;;;;;;;;;;5044341;28;20021;-81
2022/10/26 04:24:55;;;;;;;11.13;2.90;;;;;;;;;;5054578;28;20104;-85
2022/10/26 04:27:21;;;;;;;3.45;2.40;;;;;;;;;;5032893;28;20090;-85
2022/10/26 04:29:46;;;;;;;4.93;2.60;;;;;;;;;;5029548;28;20021;-84
2022/10/26 04:32:12;;;;;;;5.63;2.83;;;;;;;;;;5027302;28;20026;-85
2022/10/26 04:34:37;;;;;;;5.70;2.72;;;;;;;;;;5034824;28;20018;-82
2022/10/26 04:37:02;;;;;;;13.57;2.85;;;;;;;;;;5043370;28;20048;-83
2022/10/26 04:39:28;;;;;;;7.35;2.67;;;;;;;;;;5060499;28;20040;-83
2022/10/26 04:41:53;;;;;;;6.55;2.75;;;;;;;;;;5043545;28;20040;-83
2022/10/26 04:44:19;;;;;;;8.23;2.97;;;;;;;;;;5060083;28;20045;-83
2022/10/26 04:46:44;;;;;;;7.93;2.70;;;;;;;;;;5068545;28;20031;-83
2022/10/26 04:49:10;;;;;;;8.27;2.92;;;;;;;;;;5060593;28;20041;-84
2022/10/26 04:51:35;;;;;;;10.20;2.70;;;;;;;;;;5046488;28;20097;-84
2022/10/26 04:54:01;;;;;;;5.22;2.80;;;;;;;;;;5043279;28;20026;-83
2022/10/26 04:56:27;;;;;;;5.70;3.17;;;;;;;;;;5060153;28;20002;-83
2022/10/26 04:58:53;;;;;;;7.07;3.30;;;;;;;;;;5059809;28;20571;-83
2022/10/26 05:01:18;;;;;;;7.40;3.30;;;;;;;;;;5036005;28;20022;-82
2022/10/26 05:03:43;;;;;;;5.97;2.80;;;;;;;;;;5047671;28;20064;-85
2022/10/26 05:06:09;;;;;;;4.20;2.83;;;;;;;;;;5022139;28;20030;-84
2022/10/26 05:08:34;;;;;;;5.15;3.10;;;;;;;;;;5040725;28;20024;-84
2022/10/26 05:10:59;;;;;;;5.70;3.30;;;;;;;;;;5028154;28;20108;-84
2022/10/26 05:13:25;;;;;;;10.75;4.20;;;;;;;;;;5021040;28;20399;-85
2022/10/26 05:15:53;;;;;;;5.25;3.10;;;;;;;;;;5052658;28;20029;-85
2022/10/26 05:18:19;;;;;;;5.05;2.85;;;;;;;;;;5044389;28;20040;-85
2022/10/26 05:20:44;;;;;;;8.63;2.83;;;;;;;;;;5062451;28;20028;-84
2022/10/26 05:23:10;;;;;;;9.80;3.03;;;;;;;;;;5064014;28;20076;-85
2022/10/26 05:25:37;;;;;;;3.53;2.55;;;;;;;;;;5049060;28;20048;-85
2022/10/26 05:28:04;;;;;;;6.68;2.50;;;;;;;;;;5029786;28;20029;-85
2022/10/26 05:30:30;;;;;;;6.07;2.53;;;;;;;;;;5021481;28;20018;-85
2022/10/26 05:33:01;;;;;;;5.50;2.40;;;;;;;;;;5020531;28;20037;-84
2022/10/26 05:35:27;;;;;;;6.22;2.10;;;;;;;;;;5038795;28;20026;-84
2022/10/26 05:37:53;;;;;;;5.22;2.53;;;;;;;;;;5047742;28;20115;-84
2022/10/26 05:40:19;;;;;;;9.88;2.65;;;;;;;;;;5056162;28;20090;-84
2022/10/26 05:42:44;;;;;;;8.55;2.60;;;;;;;;;;5030319;28;20171;-83
2022/10/26 05:45:11;;;;;;;10.70;2.60;;;;;;;;;;5046485;28;20028;-84
2022/10/26 05:47:43;;;;;;;8.68;2.53;;;;;;;;;;5028049;28;20133;-83
2022/10/26 05:50:10;;;;;;;6.38;2.00;;;;;;;;;;5002276;28;20030;-84
2022/10/26 05:52:40;;;;;;;7.45;2.42;;;;;;;;;;5036502;28;20101;-85
2022/10/26 05:55:07;;;;;;;5.63;2.40;;;;;;;;;;5016380;28;20052;-85
2022/10/26 05:57:33;;;;;;;7.05;2.05;;;;;;;;;;5034378;28;20483;-83
2022/10/26 05:59:58;;;;;;;3.00;2.00;;;;;;;;;;5028038;28;20040;-84
2022/10/26 06:02:24;;;;;;;4.93;2.00;;;;;;;;;;5030546;28;20041;-84
2022/10/26 06:04:49;;;;;;;6.03;2.10;;;;;;;;;;5035148;28;20075;-83
2022/10/26 06:07:19;;;;;;;4.07;2.53;;;;;;;;;;5016073;28;20033;-86
2022/10/26 06:09:46;;;;;;;3.97;2.30;;;;;;;;;;5034529;28;20048;-87
2022/10/26 06:12:12;;;;;;;5.03;2.30;;;;;;;;;;5035962;28;20030;-83
2022/10/26 06:14:38;;;;;;;6.38;2.15;;;;;;;;;;5036157;28;20108;-83
2022/10/26 06:17:09;;;;;;;10.27;2.40;;;;;;;;;;5018626;28;20519;-84
2022/10/26 06:20:15;;;;;;;4.10;2.10;;;;;;;;;;5035239;28;20399;-84
2022/10/26 06:22:51;;;;;;;4.60;2.13;;;;;;;;;;5033182;28;20025;-85
2022/10/26 06:25:27;;;;;;;4.85;1.85;;;;;;;;;;5038327;28;20499;-84
2022/10/26 06:28:18;;;;;;;3.35;1.60;;;;;;;;;;5035696;28;20029;-85
2022/10/26 06:30:44;;;;;;;4.47;2.42;;;;;;;;;;5024012;28;20025;-83
2022/10/26 06:33:12;;;;;;;3.90;1.77;;;;;;;;;;5038385;28;20616;-84
2022/10/26 06:35:41;;;;;;;5.38;2.15;;;;;;;;;;5047307;28;20107;-83
2022/10/26 06:38:12;;;;;;;5.32;2.17;;;;;;;;;;5036045;28;20052;-85
2022/10/26 06:40:41;;;;;;;9.25;2.03;;;;;;;;;;5022918;28;20057;-84
2022/10/26 06:43:24;;;;;;;2.75;1.95;;;;;;;;;;5017028;28;20022;-85
2022/10/26 06:45:58;;;;;;;5.53;2.10;;;;;;;;;;5038064;28;20021;-85
2022/10/26 06:48:27;;;;;;;3.70;2.38;;;;;;;;;;5035025;28;20111;-83
2022/10/26 06:50:52;;;;;;;9.25;2.50;;;;;;;;;;5034137;28;20052;-82
2022/10/26 06:53:38;;;;;;;5.68;2.20;;;;;;;;;;5036848;23;20101;-85
2022/10/26 06:56:04;;;;;;;7.18;2.60;;;;;;;;;;4989863;28;20034;-85
2022/10/26 06:58:33;;;;;;;4.13;2.40;;;;;;;;;;4991029;28;20374;-85
2022/10/26 07:01:00;;;;;;;7.97;2.67;;;;;;;;;;4978793;28;20026;-84
2022/10/26 07:03:25;;;;;;;6.57;2.45;;;;;;;;;;4982139;28;20082;-84
2022/10/26 07:05:51;;;;;;;17.95;2.70;;;;;;;;;;4979975;28;20054;-84
2022/10/26 07:08:16;;;;;;;8.73;2.17;;;;;;;;;;4993642;28;20363;-84
2022/10/26 07:10:42;;;;;;;5.13;2.00;;;;;;;;;;4993330;28;20033;-84
2022/10/26 07:13:09;;;;;;;6.35;2.33;;;;;;;;;;4994868;28;20045;-84
2022/10/26 07:15:35;;;;;;;8.85;2.40;;;;;;;;;;5009014;28;20030;-84
2022/10/26 07:18:04;;;;;;;5.05;2.22;;;;;;;;;;5004743;28;20125;-83
2022/10/26 07:20:31;;;;;;;4.20;2.08;;;;;;;;;;5012994;28;20045;-83
2022/10/26 07:22:57;;;;;;;4.53;2.22;;;;;;;;;;5012969;28;20025;-83
2022/10/26 07:25:24;;;;;;;6.65;2.30;;;;;;;;;;5012871;28;20041;-84
2022/10/26 07:27:49;;;;;;;4.15;2.10;;;;;;;;;;5014858;28;20117;-83
2022/10/26 07:30:15;;;;;;;3.47;2.20;;;;;;;;;;4989194;28;20049;-84
2022/10/26 07:32:40;;;;;;;3.47;2.15;;;;;;;;;;4989561;28;20018;-84
2022/10/26 07:35:06;;;;;;;5.95;2.20;;;;;;;;;;4992543;28;20030;-85
2022/10/26 07:37:32;;;;;;;5.45;2.50;;;;;;;;;;4992295;28;20058;-84
2022/10/26 07:39:57;;;;;;;4.35;2.47;;;;;;;;;;4992912;28;20038;-84
2022/10/26 07:42:22;;;;;;;7.47;2.65;;;;;;;;;;4993411;28;20026;-83
2022/10/26 07:44:47;;;;;;;5.15;2.65;;;;;;;;;;4991364;28;20026;-84
2022/10/26 07:47:13;;;;;;;7.72;3.17;;;;;;;;;;5006317;28;20092;-83
2022/10/26 07:49:39;;;;;;;11.00;3.42;;;;;;;;;;5015045;28;20026;-83
2022/10/26 07:52:04;;;;;;;7.97;2.97;;;;;;;;;;5013828;28;20447;-84
2022/10/26 07:54:30;;;;;;;6.03;2.92;;;;;;;;;;5014119;28;20030;-83
2022/10/26 07:56:56;;;;;;;8.27;2.85;;;;;;;;;;5013934;28;20065;-83
2022/10/26 07:59:22;;;;;;;7.35;3.20;;;;;;;;;;5012912;28;20053;-84
2022/10/26 08:01:47;;;;;;;7.25;3.25;;;;;;;;;;5014507;28;20100;-84
2022/10/26 08:04:14;;;;;;;4.95;3.00;;;;;;;;;;5014208;28;20026;-84
2022/10/26 08:06:39;;;;;;;5.38;3.17;;;;;;;;;;5012889;28;20029;-84
2022/10/26 08:09:04;;;;;;;9.98;3.78;;;;;;;;;;5002058;28;20072;-85
2022/10/26 08:11:30;;;;;;;4.97;3.03;;;;;;;;;;4988173;28;20113;-83
2022/10/26 08:13:55;;;;;;;6.53;2.97;;;;;;;;;;4988248;28;20105;-83
2022/10/26 08:16:21;;;;;;;3.55;2.40;;;;;;;;;;4992923;28;20027;-84
2022/10/26 08:18:48;;;;;;;7.93;2.22;;;;;;;;;;5005401;28;20030;-84
2022/10/26 08:21:13;;;;;;;5.15;1.98;;;;;;;;;;4993542;28;20050;-83
2022/10/26 08:23:39;;;;;;;4.38;1.60;;;;;;;;;;4994957;28;20382;-83
2022/10/26 08:26:05;;;;;;;12.23;2.10;;;;;;;;;;5002287;28;20044;-84
2022/10/26 08:28:30;;;;;;;3.85;1.98;;;;;;;;;;5014602;28;20018;-83
2022/10/26 08:30:56;;;;;;;1.95;1.45;;;;;;;;;;5013675;28;20022;-84
2022/10/26 08:33:25;;;;;;;3.22;1.75;;;;;;;;;;5008687;28;20022;-85
2022/10/26 08:35:55;;;;;;;7.00;1.85;;;;;;;;;;5001646;28;20026;-85
2022/10/26 08:38:20;;;;;;;7.07;2.20;;;;;;;;;;5003882;28;20037;-84
2022/10/26 08:40:46;;;;;;;2.92;2.00;;;;;;;;;;5001656;28;20026;-84
2022/10/26 08:43:28;;;;;;;3.28;1.55;;;;;;;;;;5000748;28;20030;-85
2022/10/26 08:46:03;;;;;;;;;;;;;;;;;;5009725;28;20032;-81
2022/10/26 08:48:34;;;;;;;4.07;1.50;;;;;;;;;;5015849;28;19916;-84
2022/10/26 08:51:10;;;;;;;3.38;1.98;;;;;;;;;;5020472;28;20443;-83
2022/10/26 08:53:42;;;;;;;7.45;1.63;;;;;;;;;;5020172;28;20033;-84
2022/10/26 08:56:24;;;;;;;2.63;1.77;;;;;;;;;;5020255;28;20030;-83
2022/10/26 08:59:03;;;;;;;3.72;1.42;;;;;;;;;;5018623;28;20038;-82
2022/10/26 09:01:33;;;;;;;4.10;1.70;;;;;;;;;;5015211;28;20026;-83
2022/10/26 09:04:01;;;;;;;4.15;1.73;;;;;;;;;;5012580;28;20102;-83
2022/10/26 09:06:56;;;;;;;2.92;1.60;;;;;;;;;;5002801;28;20484;-83
2022/10/26 09:09:35;;;;;;;2.72;1.45;;;;;;;;;;5003736;28;20032;-83
2022/10/26 09:12:35;;;;;;;5.80;1.60;;;;;;;;;;5002404;28;20037;-82
2022/10/26 09:15:06;;;;;;;3.65;1.33;;;;;;;;;;5000810;28;20487;-85
2022/10/26 09:18:06;;;;;;;2.47;1.48;;;;;;;;;;5014026;28;20165;-84
2022/10/26 09:21:00;;;;;;;2.30;1.50;;;;;;;;;;4999071;28;20090;-84
2022/10/26 09:23:39;;;;;;;3.88;1.88;;;;;;;;;;4982775;28;20054;-82
2022/10/26 09:26:23;;;;;;;4.35;1.70;;;;;;;;;;4990531;28;20833;-84
2022/10/26 09:28:49;;;;;;;4.97;1.40;;;;;;;;;;5012036;28;20025;-83
2022/10/26 09:31:16;;;;;;;12.57;2.00;;;;;;;;;;5002932;28;20026;-83
2022/10/26 09:33:42;;;;;;;4.32;1.50;;;;;;;;;;5003952;28;20026;-82
2022/10/26 09:36:11;;;;;;;6.65;1.95;;;;;;;;;;5001547;28;20030;-82
2022/10/26 09:38:49;;;;;;;3.03;1.52;;;;;;;;;;5002383;28;20050;-82
2022/10/26 09:41:56;;;;;;;2.20;1.30;;;;;;;;;;4981917;28;20255;-82
2022/10/26 09:44:30;;;;;;;3.00;1.70;;;;;;;;;;4961032;28;20039;-84
2022/10/26 09:47:19;;;;;;;6.47;2.10;;;;;;;;;;5005734;28;20026;-87
2022/10/26 09:49:52;;;;;;;4.68;1.58;;;;;;;;;;4993975;28;20026;-86
2022/10/26 09:52:17;;;;;;;6.68;1.70;;;;;;;;;;4998742;28;20041;-84
2022/10/26 09:54:43;;;;;;;6.95;1.50;;;;;;;;;;4999197;28;20031;-84
2022/10/26 09:57:12;;;;;;;4.20;1.58;;;;;;;;;;4998122;28;20388;-83
2022/10/26 09:59:39;;;;;;;4.15;1.63;;;;;;;;;;5007626;28;20034;-83
2022/10/26 10:02:38;;;;;;;6.57;1.75;;;;;;;;;;5011255;28;20046;-84
2022/10/26 10:05:24;;;;;;;6.32;1.85;;;;;;;;;;5005582;28;20031;-84
2022/10/26 10:07:49;;;;;;;3.90;2.25;;;;;;;;;;5004205;28;20025;-84
2022/10/26 10:10:18;;;;;;;3.25;1.80;;;;;;;;;;4998220;28;20023;-84
2022/10/26 10:12:45;;;;;;;7.38;1.70;;;;;;;;;;5001987;28;20027;-84
2022/10/26 10:15:20;;;;;;;6.50;2.35;;;;;;;;;;5006235;28;20069;-84
2022/10/26 10:17:51;;;;;;;5.65;1.73;;;;;;;;;;5010789;28;20032;-84
2022/10/26 10:20:30;;;;;;;4.28;1.73;;;;;;;;;;5004571;28;20378;-84
2022/10/26 10:22:58;;;;;;;4.38;2.03;;;;;;;;;;5001702;28;20025;-84
2022/10/26 10:25:33;;;;;;;4.40;1.67;;;;;;;;;;4999933;28;20484;-84
2022/10/26 10:27:58;;;;;;;5.65;1.90;;;;;;;;;;5003391;28;20030;-84
2022/10/26 10:30:30;;;;;;;8.30;1.67;;;;;;;;;;5005631;28;20033;-84
2022/10/26 10:33:11;;;;;;;;;;;;;;;;;;5003818;28;20022;-83
2022/10/26 10:35:45;;;;;;;5.57;1.60;;;;;;;;;;4995840;28;20330;-84
2022/10/26 10:38:20;;;;;;;2.80;1.60;;;;;;;;;;5001783;28;20072;-82
2022/10/26 10:40:57;;;;;;;2.85;1.65;;;;;;;;;;5002958;28;20030;-83
2022/10/26 10:43:24;;;;;;;3.03;1.50;;;;;;;;;;5004149;28;20034;-84
2022/10/26 10:45:54;;;;;;;4.72;1.70;;;;;;;;;;5012302;28;20033;-84
2022/10/26 10:48:21;;;;;;;6.90;1.88;;;;;;;;;;5020878;28;20030;-83
2022/10/26 10:50:54;;;;;;;4.38;2.00;;;;;;;;;;4994095;28;20030;-83
2022/10/26 10:53:25;;;;;;;3.78;2.08;;;;;;;;;;4983037;28;20502;-83
2022/10/26 10:56:05;;;;;;;7.03;2.20;;;;;;;;;;4986991;28;20117;-83
2022/10/26 10:58:48;;;;;;;8.55;2.00;;;;;;;;;;4988016;28;20086;-83
2022/10/26 11:01:19;;;;;;;6.00;1.60;;;;;;;;;;4998520;28;20074;-84
2022/10/26 11:04:01;;;;;;;12.13;1.63;;;;;;;;;;5004290;28;20038;-83
2022/10/26 11:06:28;;;;;;;7.47;1.60;;;;;;;;;;5004024;28;20030;-84
2022/10/26 11:09:08;;;;;;;7.85;1.80;;;;;;;;;;4991773;28;20080;-84
2022/10/26 11:11:37;;;;;;;3.67;1.55;;;;;;;;;;4993838;28;20050;-83
2022/10/26 11:14:22;;;;;;;8.68;2.20;;;;;;;;;;4988508;28;20030;-83
2022/10/26 11:16:54;;;;;;;5.25;1.40;;;;;;;;;;4987419;28;20084;-83
2022/10/26 11:19:23;;;;;;;;;;;;;;;;;;4996324;28;20030;-83
2022/10/26 11:21:53;;;;;;;4.55;1.83;;;;;;;;;;4999229;28;20268;-82
2022/10/26 11:24:24;;;;;;;3.33;1.40;;;;;;;;;;5014516;28;20090;-82
2022/10/26 11:26:55;;;;;;;4.55;1.60;;;;;;;;;;5016457;28;20062;-83
2022/10/26 11:29:39;;;;;;;5.55;1.40;;;;;;;;;;5016625;28;20049;-83
2022/10/26 11:32:29;;;;;;;6.90;1.40;;;;;;;;;;5023461;28;20014;-83
2022/10/26 11:35:04;;;;;;;4.13;1.48;;;;;;;;;;5015834;28;20046;-82
2022/10/26 11:38:01;;;;;;;6.18;2.15;;;;;;;;;;5014456;28;20061;-82
2022/10/26 11:40:32;;;;;;;2.72;1.30;;;;;;;;;;5002518;28;20054;-82
2022/10/26 11:43:21;;;;;;;3.30;1.40;;;;;;;;;;4998853;28;20031;-83
2022/10/26 11:46:01;;;;;;;2.33;1.40;;;;;;;;;;5001410;28;20138;-83
2022/10/26 11:48:49;;;;;;;2.10;0.90;;;;;;;;;;5003775;28;20038;-83
2022/10/26 11:51:21;;;;;;;0.73;0.73;;;;;;;;;;5006650;28;20130;-85
2022/10/26 11:53:48;;;;;;;3.60;0.98;;;;;;;;;;5000692;28;20034;-83
2022/10/26 11:56:34;;;;;;;3.63;1.10;;;;;;;;;;5001458;28;20037;-84
2022/10/26 11:59:00;;;;;;;3.97;1.30;;;;;;;;;;5000231;28;20065;-82
2022/10/26 12:01:28;;;;;;;7.15;1.40;;;;;;;;;;5007646;28;20776;-85
2022/10/26 12:03:56;;;;;;;2.50;1.13;;;;;;;;;;5019081;28;20045;-83
2022/10/26 12:06:26;;;;;;;3.42;1.65;;;;;;;;;;5017609;28;20045;-84
2022/10/26 12:09:11;;;;;;;4.38;1.73;;;;;;;;;;5000150;28;20041;-84
2022/10/26 12:11:41;;;;;;;2.05;1.27;;;;;;;;;;4997123;28;20026;-84
2022/10/26 12:14:34;;;;;;;8.43;1.30;;;;;;;;;;5006967;28;20021;-84
2022/10/26 12:17:03;;;;;;;3.88;1.75;;;;;;;;;;5000992;28;20109;-83
2022/10/26 12:19:47;;;;;;;2.42;1.42;;;;;;;;;;4993174;28;20101;-83
2022/10/26 12:22:16;;;;;;;1.55;0.85;;;;;;;;;;4992268;28;20549;-84
2022/10/26 12:24:44;;;;;;;5.10;1.60;;;;;;;;;;4993749;28;20030;-84
2022/10/26 12:27:48;;;;;;;4.97;1.58;;;;;;;;;;4988074;28;20049;-83
2022/10/26 12:30:17;;;;;;;7.82;1.85;;;;;;;;;;4994309;28;20483;-83
2022/10/26 12:32:42;;;;;;;5.88;1.40;;;;;;;;;;4983462;28;20377;-83
2022/10/26 12:35:40;;;;;;;11.35;1.42;;;;;;;;;;4988664;28;20481;-83
2022/10/26 12:38:23;;;;;;;4.00;1.67;;;;;;;;;;4994766;28;20034;-84
2022/10/26 12:41:20;;;;;;;3.50;1.30;;;;;;;;;;4991794;28;20022;-84
2022/10/26 12:43:45;;;;;;;5.43;1.25;;;;;;;;;;4994810;28;20080;-84
2022/10/26 12:46:10;;;;;;;3.65;1.27;;;;;;;;;;4985463;28;20086;-83
2022/10/26 12:48:39;;;;;;;2.58;1.20;;;;;;;;;;4991414;28;20389;-84
2022/10/26 12:51:25;;;;;;;3.92;1.52;;;;;;;;;;4994051;28;20023;-84
2022/10/26 12:53:57;;;;;;;3.83;1.52;;;;;;;;;;4994908;28;20030;-84
2022/10/26 12:56:40;;;;;;;5.75;1.73;;;;;;;;;;4996647;28;20030;-83
2022/10/26 12:59:26;;;;;;;4.53;1.92;;;;;;;;;;4992825;28;20038;-84
2022/10/26 13:02:02;;;;;;;1.30;1.17;;;;;;;;;;4993468;28;20037;-83
2022/10/26 13:04:40;;;;;;;2.90;1.33;;;;;;;;;;4992654;28;20034;-84
2022/10/26 13:07:23;;;;;;;4.25;1.27;;;;;;;;;;4997199;28;20030;-84
2022/10/26 13:10:10;;;;;;;3.88;1.38;;;;;;;;;;5014716;28;20030;-85
2022/10/26 13:12:43;;;;;;;10.43;1.90;;;;;;;;;;5015154;28;20105;-84
2022/10/26 13:15:22;;;;;;;2.90;1.60;;;;;;;;;;5006698;28;20026;-86
2022/10/26 13:18:05;;;;;;;10.50;1.33;;;;;;;;;;5004814;28;20030;-86
2022/10/26 13:20:31;;;;;;;7.07;1.90;;;;;;;;;;4999391;28;20022;-87
2022/10/26 13:22:57;;;;;;;7.05;1.50;;;;;;;;;;4997498;28;20080;-85
2022/10/26 13:25:27;;;;;;;10.75;1.77;;;;;;;;;;4998320;28;20034;-85
2022/10/26 13:28:06;;;;;;;4.45;2.28;;;;;;;;;;4997277;28;20105;-86
2022/10/26 13:30:35;;;;;;;6.88;1.48;;;;;;;;;;5006240;28;20030;-83
2022/10/26 13:33:01;;;;;;;4.82;1.75;;;;;;;;;;5000771;28;20031;-82
2022/10/26 13:35:27;;;;;;;3.42;1.42;;;;;;;;;;5000983;28;20034;-83
2022/10/26 13:37:54;;;;;;;4.97;1.48;;;;;;;;;;5002183;28;20038;-82
2022/10/26 13:40:23;;;;;;;4.18;1.42;;;;;;;;;;5000166;28;20034;-83
2022/10/26 13:42:53;;;;;;;2.83;1.30;;;;;;;;;;4995767;28;20030;-86
2022/10/26 13:45:23;;;;;;;8.13;1.95;;;;;;;;;;4987667;28;20041;-84
2022/10/26 13:48:02;;;;;;;7.68;1.60;;;;;;;;;;5004591;28;20041;-85
2022/10/26 13:50:32;;;;;;;3.70;1.30;;;;;;;;;;4990351;28;20034;-85
2022/10/26 13:53:04;;;;;;;4.30;1.77;;;;;;;;;;4990775;28;20515;-85
2022/10/26 13:55:42;;;;;;;4.53;1.45;;;;;;;;;;4995105;28;20026;-84
2022/10/26 13:58:21;;;;;;;5.88;1.42;;;;;;;;;;4990494;28;20111;-84
2022/10/26 14:01:09;;;;;;;7.05;1.85;;;;;;;;;;4993320;28;20026;-85
2022/10/26 14:03:35;;;;;;;4.15;1.55;;;;;;;;;;4987811;28;20038;-83
2022/10/26 14:06:07;;;;;;;5.38;1.80;;;;;;;;;;4983157;28;20029;-83
2022/10/26 14:08:32;;;;;;;3.22;1.20;;;;;;;;;;4993265;28;20018;-84
2022/10/26 14:10:59;;;;;;;4.07;1.58;;;;;;;;;;4993442;28;20033;-85
2022/10/26 14:13:26;;;;;;;2.05;1.48;;;;;;;;;;4985737;28;20086;-84
2022/10/26 14:15:54;;;;;;;4.03;1.52;;;;;;;;;;4985284;28;20069;-84
2022/10/26 14:18:30;;;;;;;4.70;1.88;;;;;;;;;;4987042;28;21057;-84
2022/10/26 14:21:00;;;;;;;6.82;1.73;;;;;;;;;;4988337;28;20118;-83
2022/10/26 14:23:37;;;;;;;4.25;1.50;;;;;;;;;;5001703;28;20037;-84
2022/10/26 14:26:05;;;;;;;6.00;1.50;;;;;;;;;;5000488;28;20041;-83
2022/10/26 14:28:38;;;;;;;6.13;1.95;;;;;;;;;;4993703;28;20049;-84
2022/10/26 14:31:27;;;;;;;6.10;1.90;;;;;;;;;;4999441;28;20026;-83
2022/10/26 14:33:54;;;;;;;7.70;1.80;;;;;;;;;;4999068;28;20030;-84
2022/10/26 14:36:25;;;;;;;4.70;1.60;;;;;;;;;;4999502;28;20109;-84
2022/10/26 14:38:57;;;;;;;10.00;1.73;;;;;;;;;;4996359;28;20050;-85
2022/10/26 14:41:25;;;;;;;11.85;1.63;;;;;;;;;;5001016;28;20034;-83
2022/10/26 14:43:51;;;;;;;7.15;1.90;;;;;;;;;;5006361;28;20102;-82
2022/10/26 14:46:18;;;;;;;4.60;1.40;;;;;;;;;;5005130;28;20031;-85
2022/10/26 14:48:56;;;;;;;5.78;1.65;;;;;;;;;;4991132;28;20113;-86
2022/10/26 14:51:33;;;;;;;5.05;1.40;;;;;;;;;;4991394;28;20121;-86
2022/10/26 14:54:00;;;;;;;6.38;1.40;;;;;;;;;;5001018;28;20034;-84
2022/10/26 14:56:34;;;;;;;5.95;1.50;;;;;;;;;;5006838;28;20680;-85
2022/10/26 14:59:17;;;;;;;7.20;2.20;;;;;;;;;;4993205;28;20117;-85
2022/10/26 15:01:56;;;;;;;8.10;1.65;;;;;;;;;;4997468;28;20643;-84
2022/10/26 15:04:26;;;;;;;3.13;1.48;;;;;;;;;;4992783;28;20033;-85
2022/10/26 15:06:51;;;;;;;5.03;1.67;;;;;;;;;;4992239;28;20032;-84
2022/10/26 15:09:36;;;;;;;6.22;1.55;;;;;;;;;;4994401;28;20090;-85